Time;durP1;ratioP1;P1;durP2;ratioP2;P2;SDS_P1;SDS_P2;PMS_P1;PMS_P2;Temp;Humidity;BMP_temperature;BMP_pressure;BME280_temperature;BME280_humidity;BME280_pressure;Samples;Min_cycle;Max_cycle;Signal;HPM_P1;HPM_P2
2022/03/15 00:01:56;;;;;;;34.03;18.87;;;;;;;1.72;59.88;102216.21;1794699;78;20907;-72
2022/03/15 00:04:23;;;;;;;28.73;16.73;;;;;;;1.68;60.08;102213.17;1778656;79;20923;-71
2022/03/15 00:06:51;;;;;;;27.52;17.92;;;;;;;1.65;60.27;102211.45;1777610;80;21498;-71
2022/03/15 00:09:18;;;;;;;24.57;16.17;;;;;;;1.63;60.31;102211.44;1772039;80;20959;-71
2022/03/15 00:11:46;;;;;;;21.50;15.00;;;;;;;1.62;60.38;102203.67;1737658;81;20884;-72
2022/03/15 00:14:14;;;;;;;26.60;17.23;;;;;;;1.63;60.43;102198.52;1777157;80;20926;-72
2022/03/15 00:16:42;;;;;;;25.30;16.27;;;;;;;1.61;60.44;102203.25;1781262;80;20998;-72
2022/03/15 00:19:10;;;;;;;21.00;15.00;;;;;;;1.53;60.53;102185.55;1780419;80;21130;-72
2022/03/15 00:21:38;;;;;;;25.32;15.08;;;;;;;1.59;60.52;102198.50;1804259;78;21361;-71
2022/03/15 00:24:06;;;;;;;22.62;13.70;;;;;;;1.56;60.69;102198.50;1804592;79;20900;-72
2022/03/15 00:26:35;;;;;;;17.95;12.90;;;;;;;1.54;60.84;102196.34;1810181;79;20889;-72
2022/03/15 00:29:03;;;;;;;19.90;13.10;;;;;;;1.52;60.91;102184.70;1803829;78;20849;-72
2022/03/15 00:31:32;;;;;;;21.55;13.83;;;;;;;1.52;60.93;102187.72;1802450;78;21918;-72
2022/03/15 00:34:00;;;;;;;18.30;12.33;;;;;;;1.50;60.98;102182.53;1806997;78;20943;-71
2022/03/15 00:36:27;;;;;;;18.75;12.23;;;;;;;1.48;61.00;102186.83;1810281;79;21521;-72
2022/03/15 00:38:55;;;;;;;16.45;11.18;;;;;;;1.45;61.09;102185.55;1804217;77;21447;-72
2022/03/15 00:41:24;;;;;;;17.40;11.55;;;;;;;1.39;61.19;102182.93;1807470;79;20912;-72
2022/03/15 00:43:52;;;;;;;18.60;12.15;;;;;;;1.36;61.32;102177.33;1810293;79;21137;-71
2022/03/15 00:46:19;;;;;;;18.62;12.73;;;;;;;1.35;61.36;102175.58;1804576;78;20928;-73
2022/03/15 00:48:46;;;;;;;16.65;12.75;;;;;;;1.32;61.43;102169.13;1808081;78;20900;-72
2022/03/15 00:51:13;;;;;;;16.77;11.63;;;;;;;1.33;61.62;102164.81;1782375;80;21424;-72
2022/03/15 00:53:40;;;;;;;17.75;12.45;;;;;;;1.35;61.61;102166.97;1777747;80;20923;-71
2022/03/15 00:56:07;;;;;;;17.62;11.53;;;;;;;1.33;61.64;102163.08;1780833;80;21845;-73
2022/03/15 00:58:34;;;;;;;19.95;11.70;;;;;;;1.33;61.66;102164.38;1771736;80;20888;-72
2022/03/15 01:01:01;;;;;;;18.55;13.00;;;;;;;1.33;61.81;102164.81;1717309;80;20952;-72
2022/03/15 01:03:30;;;;;;;20.88;13.22;;;;;;;1.27;61.87;102145.40;1741190;82;20987;-71
2022/03/15 01:05:58;;;;;;;20.23;13.40;;;;;;;1.36;61.87;102160.97;1771040;80;21011;-72
2022/03/15 01:08:25;;;;;;;18.67;12.40;;;;;;;1.35;61.93;102153.61;1795062;78;21086;-71
2022/03/15 01:10:52;;;;;;;17.95;12.00;;;;;;;1.36;61.98;102151.48;1800510;78;20896;-72
2022/03/15 01:13:19;;;;;;;17.87;11.83;;;;;;;1.36;61.94;102149.34;1801683;77;20955;-73
2022/03/15 01:15:46;;;;;;;18.67;12.13;;;;;;;1.36;61.96;102140.29;1802764;78;20951;-71
2022/03/15 01:18:12;;;;;;;19.80;12.63;;;;;;;1.34;61.96;102142.00;1799615;77;20938;-73
2022/03/15 01:20:43;;;;;;;18.20;12.43;;;;;;;1.35;61.96;102145.86;1794048;77;20970;-73
2022/03/15 01:23:10;;;;;;;22.37;13.03;;;;;;;1.36;61.98;102139.00;1788154;77;21456;-73
2022/03/15 01:25:39;;;;;;;19.20;13.43;;;;;;;1.37;61.95;102135.10;1785532;77;21548;-72
2022/03/15 01:28:06;;;;;;;21.15;13.48;;;;;;;1.36;61.94;102136.41;1790977;77;20998;-72
2022/03/15 01:30:34;;;;;;;21.52;13.40;;;;;;;1.34;62.00;102138.13;1804266;78;20916;-72
2022/03/15 01:33:01;;;;;;;19.85;13.25;;;;;;;1.34;62.06;102132.95;1810243;78;21535;-73
2022/03/15 01:35:28;;;;;;;19.07;13.65;;;;;;;1.35;62.08;102136.81;1806418;78;20972;-72
2022/03/15 01:37:57;;;;;;;24.47;16.45;;;;;;;1.35;62.14;102134.67;1776183;79;21037;-72
2022/03/15 01:40:25;;;;;;;20.12;14.10;;;;;;;1.35;62.20;102134.67;1771718;81;20936;-73
2022/03/15 01:42:52;;;;;;;28.32;14.10;;;;;;;1.34;62.17;102135.11;1741085;81;20920;-72
2022/03/15 01:45:19;;;;;;;25.52;14.18;;;;;;;1.33;62.21;102135.95;1728839;80;21119;-72
2022/03/15 01:47:46;;;;;;;24.63;15.08;;;;;;;1.34;62.23;102129.94;1771548;79;20885;-73
2022/03/15 01:50:13;;;;;;;24.67;15.30;;;;;;;1.31;62.24;102135.52;1748705;80;20917;-71
2022/03/15 01:52:42;;;;;;;27.37;15.98;;;;;;;1.29;62.35;102128.18;1793052;78;20950;-73
2022/03/15 01:55:09;;;;;;;24.20;16.25;;;;;;;1.28;62.41;102126.47;1772879;79;20872;-71
2022/03/15 01:57:37;;;;;;;25.77;15.32;;;;;;;1.28;62.45;102123.89;1790504;78;21121;-71
2022/03/15 02:00:06;;;;;;;28.62;15.45;;;;;;;1.29;62.55;102126.89;1762152;80;20882;-73
2022/03/15 02:02:33;;;;;;;29.02;15.10;;;;;;;1.27;62.53;102124.73;1785790;78;20852;-71
2022/03/15 02:05:01;;;;;;;24.77;16.85;;;;;;;1.24;62.55;102118.72;1798160;77;21306;-71
2022/03/15 02:07:29;;;;;;;24.07;15.80;;;;;;;1.24;62.57;102124.30;1798636;77;20950;-71
2022/03/15 02:09:57;;;;;;;23.80;14.07;;;;;;;1.23;62.62;102127.31;1791858;77;21459;-72
2022/03/15 02:12:28;;;;;;;19.77;13.72;;;;;;;1.22;62.65;102124.31;1809272;78;20896;-73
2022/03/15 02:15:03;;;;;;;29.57;14.18;;;;;;;1.19;62.75;102128.16;1780079;80;21511;-72
2022/03/15 02:17:28;;;;;;;25.15;14.28;;;;;;;1.16;62.91;102123.00;1767018;80;20908;-73
2022/03/15 02:19:56;;;;;;;23.12;13.38;;;;;;;1.15;62.98;102124.27;1778950;78;20867;-72
2022/03/15 02:22:23;;;;;;;22.73;14.30;;;;;;;1.12;63.05;102127.72;1778072;80;21833;-71
2022/03/15 02:24:50;;;;;;;23.57;14.53;;;;;;;1.10;63.24;102124.70;1748157;79;21469;-72
2022/03/15 02:27:17;;;;;;;22.65;14.85;;;;;;;1.09;63.29;102125.53;1726041;81;21568;-73
2022/03/15 02:29:44;;;;;;;21.60;14.35;;;;;;;1.11;63.31;102123.83;1782263;80;21421;-72
2022/03/15 02:32:11;;;;;;;18.48;12.30;;;;;;;1.10;63.37;102115.66;1797963;77;20865;-71
2022/03/15 02:34:38;;;;;;;20.97;13.83;;;;;;;1.10;63.37;102120.38;1780572;80;21207;-70
2022/03/15 02:37:07;;;;;;;22.30;14.40;;;;;;;1.11;63.33;102121.23;1773797;80;21421;-71
2022/03/15 02:39:35;;;;;;;21.77;14.85;;;;;;;1.10;63.33;102116.51;1771706;80;20900;-72
2022/03/15 02:42:03;;;;;;;21.55;13.98;;;;;;;1.09;63.36;102122.95;1728715;80;20908;-72
2022/03/15 02:44:31;;;;;;;17.73;12.60;;;;;;;1.07;63.38;102122.08;1735555;81;20931;-72
2022/03/15 02:46:58;;;;;;;17.23;11.53;;;;;;;1.06;63.50;102122.95;1771611;81;21140;-73
2022/03/15 02:49:25;;;;;;;20.05;12.53;;;;;;;1.05;63.50;102120.80;1746096;79;20995;-71
2022/03/15 02:51:53;;;;;;;15.18;10.58;;;;;;;0.99;63.63;102120.78;1776205;77;21049;-72
2022/03/15 02:54:20;;;;;;;22.45;11.90;;;;;;;0.96;63.76;102123.36;1801558;78;20946;-71
2022/03/15 02:56:47;;;;;;;19.10;11.78;;;;;;;0.90;63.90;102117.72;1801270;77;20938;-72
2022/03/15 02:59:16;;;;;;;18.80;12.33;;;;;;;0.87;64.05;102116.84;1802296;78;21076;-72
2022/03/15 03:01:44;;;;;;;18.87;11.30;;;;;;;0.88;64.16;102118.58;1807709;77;20904;-71
2022/03/15 03:04:11;;;;;;;16.50;11.83;;;;;;;0.88;64.19;102118.58;1795704;78;20947;-72
2022/03/15 03:06:41;;;;;;;25.85;11.90;;;;;;;0.89;64.35;102112.55;1802036;78;20953;-71
2022/03/15 03:09:10;;;;;;;15.08;10.80;;;;;;;0.89;64.34;102112.55;1806837;79;20975;-71
2022/03/15 03:11:38;;;;;;;15.63;10.53;;;;;;;0.88;64.44;102109.11;1801662;78;21085;-71
2022/03/15 03:14:06;;;;;;;14.40;11.45;;;;;;;0.90;64.36;102107.83;1795296;77;20890;-73
2022/03/15 03:16:34;;;;;;;14.20;10.78;;;;;;;0.86;64.49;102104.80;1793059;77;21068;-72
2022/03/15 03:19:02;;;;;;;17.65;10.70;;;;;;;0.83;64.58;102106.50;1772350;80;20888;-72
2022/03/15 03:21:31;;;;;;;16.50;10.00;;;;;;;0.83;64.63;102101.78;1745652;79;20928;-72
2022/03/15 03:23:58;;;;;;;18.75;11.18;;;;;;;0.85;64.59;102101.80;1787556;78;21145;-70
2022/03/15 03:26:26;;;;;;;13.25;9.35;;;;;;;0.83;64.64;102104.36;1800710;77;20926;-72
2022/03/15 03:28:55;;;;;;;15.95;10.03;;;;;;;0.80;64.65;102105.22;1794291;78;21314;-72
2022/03/15 03:31:21;;;;;;;14.70;10.65;;;;;;;0.75;64.77;102104.31;1801109;77;21323;-72
2022/03/15 03:33:50;;;;;;;14.80;10.30;;;;;;;0.72;64.92;102103.45;1794268;77;20906;-72
2022/03/15 03:36:17;;;;;;;18.12;10.55;;;;;;;0.72;65.02;102103.02;1789332;78;21514;-71
2022/03/15 03:38:47;;;;;;;18.27;10.70;;;;;;;0.74;65.05;102099.16;1795757;77;20912;-71
2022/03/15 03:41:14;;;;;;;14.83;9.98;;;;;;;0.76;65.12;102102.61;1810238;79;20900;-72
2022/03/15 03:43:41;;;;;;;17.20;12.20;;;;;;;0.80;65.09;102101.74;1790579;78;20940;-72
2022/03/15 03:46:09;;;;;;;16.20;11.15;;;;;;;0.80;65.09;102103.03;1778448;80;20990;-73
2022/03/15 03:48:37;;;;;;;15.53;10.72;;;;;;;0.81;65.08;102106.07;1777522;80;21284;-72
2022/03/15 03:51:04;;;;;;;15.48;10.40;;;;;;;0.81;65.08;102107.36;1764148;79;20892;-72
2022/03/15 03:53:31;;;;;;;18.00;11.95;;;;;;;0.80;65.00;102109.48;1787338;78;20951;-72
2022/03/15 03:55:58;;;;;;;15.48;10.70;;;;;;;0.80;65.14;102108.20;1810180;79;21496;-73
2022/03/15 03:58:25;;;;;;;17.90;12.47;;;;;;;0.83;65.19;102104.36;1809981;78;21307;-73
2022/03/15 04:00:52;;;;;;;15.88;10.40;;;;;;;0.86;65.11;102109.96;1776332;80;21912;-73
2022/03/15 04:03:20;;;;;;;14.98;11.35;;;;;;;0.86;65.03;102106.09;1780524;79;20951;-72
2022/03/15 04:05:49;;;;;;;14.83;11.05;;;;;;;0.82;65.10;102103.50;1766066;80;21070;-72
2022/03/15 04:08:16;;;;;;;15.72;10.90;;;;;;;0.85;65.14;102106.52;1714932;80;20897;-72
2022/03/15 04:10:46;;;;;;;18.48;11.88;;;;;;;0.88;65.21;102106.95;1775243;80;20966;-72
2022/03/15 04:13:18;;;;;;;16.52;10.35;;;;;;;0.89;65.17;102110.84;1810300;77;21156;-73
2022/03/15 04:15:46;;;;;;;15.28;10.48;;;;;;;0.89;65.19;102105.69;1795128;77;20895;-72
2022/03/15 04:18:15;;;;;;;16.20;10.80;;;;;;;0.90;65.12;102107.83;1772969;80;20930;-73
2022/03/15 04:20:41;;;;;;;15.15;10.95;;;;;;;0.89;65.20;102103.10;1767591;79;21069;-71
2022/03/15 04:23:10;;;;;;;17.57;13.25;;;;;;;0.87;65.21;102100.94;1802331;77;20951;-74
2022/03/15 04:25:39;;;;;;;13.83;10.72;;;;;;;0.89;65.32;102102.21;1788445;78;21533;-73
2022/03/15 04:28:07;;;;;;;17.85;11.63;;;;;;;0.91;65.34;102104.37;1795932;77;20853;-72
2022/03/15 04:30:34;;;;;;;15.63;10.32;;;;;;;0.92;65.41;102099.23;1799217;78;20821;-74
2022/03/15 04:33:01;;;;;;;19.30;10.75;;;;;;;0.95;65.30;102106.97;1779276;80;20963;-72
2022/03/15 04:35:29;;;;;;;17.20;11.25;;;;;;;0.96;65.25;102105.28;1752937;80;20956;-73
2022/03/15 04:37:57;;;;;;;14.80;10.70;;;;;;;0.95;65.30;102107.41;1722761;81;21141;-73
2022/03/15 04:40:24;;;;;;;17.50;11.22;;;;;;;0.94;65.38;102106.55;1741159;82;20892;-74
2022/03/15 04:42:54;;;;;;;17.48;10.53;;;;;;;0.99;65.41;102106.57;1757745;80;20912;-73
2022/03/15 04:45:22;;;;;;;17.30;11.93;;;;;;;1.06;65.55;102105.73;1801056;77;21014;-74
2022/03/15 04:47:49;;;;;;;15.75;9.98;;;;;;;1.18;65.63;102105.78;1785087;77;20958;-73
2022/03/15 04:50:17;;;;;;;16.30;11.35;;;;;;;1.42;65.57;102109.27;1788417;77;21121;-73
2022/03/15 04:52:44;;;;;;;16.50;10.80;;;;;;;1.72;65.23;102108.89;1805285;79;20955;-72
2022/03/15 04:55:11;;;;;;;16.15;10.98;;;;;;;2.05;64.42;102105.00;1797046;77;20966;-74
2022/03/15 04:57:39;;;;;;;16.37;10.58;;;;;;;2.46;63.92;102102.77;1783640;77;20997;-73
2022/03/15 05:00:09;;;;;;;14.18;11.12;;;;;;;2.98;62.50;102106.93;1801610;77;20856;-72
2022/03/15 05:02:39;;;;;;;16.17;11.10;;;;;;;3.55;61.65;102109.62;1801605;77;21154;-73
2022/03/15 05:05:07;;;;;;;13.98;10.25;;;;;;;4.16;59.86;102110.45;1810128;79;20903;-72
2022/03/15 05:07:36;;;;;;;16.30;11.12;;;;;;;4.70;58.08;102107.28;1810236;79;21301;-73
2022/03/15 05:12:50;;;;;;;14.85;9.63;;;;;;;5.71;55.64;102101.13;1800726;78;20865;-74
2022/03/15 05:15:19;;;;;;;15.48;10.98;;;;;;;6.17;53.98;102098.64;1798805;77;21151;-73
2022/03/15 05:17:46;;;;;;;15.23;10.50;;;;;;;6.49;53.03;102099.81;1795257;77;20859;-73
2022/03/15 05:20:14;;;;;;;15.50;9.95;;;;;;;6.78;52.08;102099.66;1773144;80;20899;-73
2022/03/15 05:22:46;;;;;;;14.00;10.88;;;;;;;7.06;51.58;102096.89;1767915;79;20905;-73
2022/03/15 05:25:12;;;;;;;13.90;10.43;;;;;;;7.40;50.53;102095.28;1799369;78;20893;-73
2022/03/15 05:27:39;;;;;;;12.95;9.65;;;;;;;7.77;49.97;102103.56;1804288;77;21815;-73
2022/03/15 05:30:08;;;;;;;14.28;9.18;;;;;;;8.09;48.88;102101.01;1793977;77;20998;-72
2022/03/15 05:32:35;;;;;;;14.87;9.95;;;;;;;8.22;48.07;102089.77;1802337;78;20942;-74
2022/03/15 05:35:02;;;;;;;12.73;9.85;;;;;;;8.35;47.83;102092.06;1809112;79;20912;-74
2022/03/15 05:37:30;;;;;;;12.82;10.65;;;;;;;8.54;46.89;102087.20;1810186;77;20959;-74
2022/03/15 05:39:58;;;;;;;15.08;10.00;;;;;;;8.66;46.13;102088.19;1810238;79;21149;-74
2022/03/15 05:42:25;;;;;;;12.37;10.98;;;;;;;8.68;45.97;102094.23;1802978;77;20911;-74
2022/03/15 05:44:52;;;;;;;14.23;9.95;;;;;;;8.52;45.85;102093.80;1796985;77;20916;-73
2022/03/15 05:47:19;;;;;;;17.52;11.08;;;;;;;8.45;45.90;102096.19;1810185;79;20904;-74
2022/03/15 05:49:47;;;;;;;13.65;10.60;;;;;;;8.51;45.90;102096.00;1801469;78;20990;-73
2022/03/15 05:52:14;;;;;;;12.20;10.15;;;;;;;8.69;45.77;102099.43;1800599;77;21121;-74
2022/03/15 05:54:42;;;;;;;12.55;9.95;;;;;;;9.01;45.11;102103.32;1774182;79;20971;-73
2022/03/15 05:57:09;;;;;;;12.82;10.08;;;;;;;9.15;44.85;102098.52;1776579;80;20935;-72
2022/03/15 05:59:36;;;;;;;15.45;11.22;;;;;;;9.10;44.39;102093.42;1755764;80;20857;-74
2022/03/15 06:02:03;;;;;;;13.18;9.65;;;;;;;8.76;44.34;102094.00;1782650;77;21389;-74
2022/03/15 06:04:30;;;;;;;12.75;11.12;;;;;;;8.35;45.04;102093.38;1788990;78;21243;-72
2022/03/15 06:06:57;;;;;;;12.50;10.40;;;;;;;7.99;45.36;102098.67;1788876;77;20891;-73
2022/03/15 06:09:25;;;;;;;12.35;9.55;;;;;;;7.51;46.20;102098.50;1793417;77;20888;-74
2022/03/15 06:11:54;;;;;;;14.85;9.95;;;;;;;7.11;47.27;102094.63;1802915;77;21341;-75
2022/03/15 06:14:22;;;;;;;12.00;10.10;;;;;;;6.78;47.87;102094.44;1799907;77;20955;-74
2022/03/15 06:16:49;;;;;;;22.25;12.00;;;;;;;6.44;48.37;102088.60;1800362;77;21148;-73
2022/03/15 06:19:18;;;;;;;13.10;10.70;;;;;;;6.17;49.14;102088.67;1772882;79;21037;-72
2022/03/15 06:21:46;;;;;;;14.87;10.58;;;;;;;5.95;49.68;102090.79;1742010;79;20885;-73
2022/03/15 06:24:13;;;;;;;13.45;10.70;;;;;;;5.79;50.16;102091.02;1809241;79;20833;-74
2022/03/15 06:26:41;;;;;;;15.88;10.65;;;;;;;5.59;50.57;102090.03;1796355;77;21504;-74
2022/03/15 06:29:08;;;;;;;14.20;9.83;;;;;;;5.43;51.04;102092.91;1803271;78;21145;-74
2022/03/15 06:31:37;;;;;;;16.23;10.03;;;;;;;5.33;51.65;102089.55;1793913;80;20938;-74
2022/03/15 06:34:05;;;;;;;18.15;10.00;;;;;;;5.37;51.98;102086.89;1806996;79;20830;-72
2022/03/15 06:36:36;;;;;;;17.07;12.37;;;;;;;5.59;51.94;102077.47;1794896;77;21504;-73
2022/03/15 06:39:05;;;;;;;13.95;10.50;;;;;;;5.81;51.70;102082.73;1796913;77;21401;-74
2022/03/15 06:41:39;;;;;;;12.07;10.28;;;;;;;5.99;51.74;102074.23;1810938;78;21163;-73
2022/03/15 06:44:04;;;;;;;17.12;10.25;;;;;;;6.34;51.14;102069.69;1804273;78;20888;-74
2022/03/15 06:46:32;;;;;;;15.95;10.43;;;;;;;6.95;50.49;102066.27;1804214;77;20975;-73
2022/03/15 06:49:00;;;;;;;14.18;10.45;;;;;;;7.74;48.48;102073.16;1778671;80;20955;-74
2022/03/15 06:51:27;;;;;;;19.15;10.70;;;;;;;8.43;47.16;102075.77;1780944;80;20911;-74
2022/03/15 06:53:56;;;;;;;12.20;9.55;;;;;;;9.13;45.87;102071.07;1774467;79;21927;-75
2022/03/15 06:56:23;;;;;;;13.48;9.45;;;;;;;9.77;44.36;102076.95;1744034;79;20916;-75
2022/03/15 06:58:52;;;;;;;10.20;8.50;;;;;;;10.39;43.21;102070.02;1783918;77;20932;-74
2022/03/15 07:01:19;;;;;;;12.75;10.00;;;;;;;10.99;41.89;102069.95;1810235;79;20885;-74
2022/03/15 07:03:46;;;;;;;12.10;8.88;;;;;;;11.56;41.26;102066.41;1804171;77;20821;-73
2022/03/15 07:06:16;;;;;;;9.98;8.65;;;;;;;12.06;39.67;102064.38;1810017;78;21142;-73
2022/03/15 07:08:44;;;;;;;13.65;9.63;;;;;;;12.51;38.80;102069.85;1802778;78;20911;-75
2022/03/15 07:11:12;;;;;;;11.78;9.58;;;;;;;12.78;38.30;102066.42;1793286;78;20888;-74
2022/03/15 07:13:39;;;;;;;13.28;10.45;;;;;;;13.16;37.66;102068.60;1805975;79;20939;-74
2022/03/15 07:16:07;;;;;;;11.30;9.13;;;;;;;13.54;37.12;102071.63;1808223;77;20849;-73
2022/03/15 07:18:36;;;;;;;12.03;10.00;;;;;;;13.91;36.89;102068.02;1795218;79;20900;-75
2022/03/15 07:21:03;;;;;;;11.70;9.70;;;;;;;14.51;34.50;102068.39;1810195;79;20856;-75
2022/03/15 07:23:32;;;;;;;12.95;9.33;;;;;;;14.51;34.50;102068.39;1804563;77;20908;-74
2022/03/15 07:25:59;;;;;;;9.48;8.38;;;;;;;14.59;34.61;102068.50;1810276;79;20893;-75
2022/03/15 07:28:27;;;;;;;12.10;9.05;;;;;;;14.69;34.23;102063.94;1789727;77;20946;-75
2022/03/15 07:33:20;;;;;;;9.85;8.85;;;;;;;15.12;33.50;102063.39;1795922;78;22347;-73
2022/03/15 07:35:47;;;;;;;11.85;9.33;;;;;;;15.24;33.24;102064.48;1785936;80;21461;-75
2022/03/15 07:38:17;;;;;;;10.82;8.38;;;;;;;15.47;32.84;102065.36;1790111;79;21134;-74
2022/03/15 07:40:44;;;;;;;11.50;8.65;;;;;;;15.77;32.46;102067.66;1786505;79;20995;-75
2022/03/15 07:43:13;;;;;;;11.48;9.05;;;;;;;16.00;32.41;102067.13;1771305;80;20939;-75
2022/03/15 07:45:42;;;;;;;11.90;10.48;;;;;;;16.18;31.42;102068.30;1794894;80;21596;-74
2022/03/15 07:48:09;;;;;;;9.78;8.78;;;;;;;16.10;31.43;102074.91;1793825;79;20971;-73
2022/03/15 07:50:36;;;;;;;9.08;7.78;;;;;;;16.25;31.25;102078.44;1793339;80;21237;-75
2022/03/15 07:53:05;;;;;;;11.10;8.90;;;;;;;16.41;31.02;102076.15;1793932;80;20919;-75
2022/03/15 07:55:34;;;;;;;9.65;8.53;;;;;;;16.57;30.72;102076.92;1794044;80;20923;-73
2022/03/15 07:58:02;;;;;;;12.30;8.98;;;;;;;16.81;30.80;102074.58;1775162;79;21020;-74
2022/03/15 08:00:29;;;;;;;11.25;9.43;;;;;;;17.15;30.50;102075.06;1781610;79;21050;-73
2022/03/15 08:02:58;;;;;;;9.73;8.73;;;;;;;17.49;29.96;102073.70;1766532;80;21045;-75
2022/03/15 08:05:28;;;;;;;9.68;8.65;;;;;;;17.58;29.38;102073.09;1792154;80;20994;-74
2022/03/15 08:07:55;;;;;;;12.80;9.75;;;;;;;17.48;29.02;102073.34;1782328;80;20956;-74
2022/03/15 08:10:23;;;;;;;12.73;8.75;;;;;;;17.37;28.99;102073.20;1769049;79;20998;-73
2022/03/15 08:12:52;;;;;;;12.05;10.00;;;;;;;17.04;28.67;102073.10;1779456;80;20896;-74
2022/03/15 08:15:19;;;;;;;11.10;10.00;;;;;;;16.52;29.49;102071.07;1771313;79;21091;-75
2022/03/15 08:17:47;;;;;;;11.80;9.15;;;;;;;16.15;29.80;102075.47;1793055;80;20967;-74
2022/03/15 08:20:18;;;;;;;11.12;9.15;;;;;;;16.11;30.26;102069.14;1777955;79;20982;-73
2022/03/15 08:22:44;;;;;;;12.23;8.98;;;;;;;16.13;30.19;102069.42;1776593;79;21008;-73
2022/03/15 08:25:12;;;;;;;11.33;8.93;;;;;;;16.14;30.26;102076.43;1780048;79;21473;-74
2022/03/15 08:27:42;;;;;;;10.03;8.68;;;;;;;16.50;30.53;102068.98;1771936;79;21263;-74
2022/03/15 08:30:10;;;;;;;9.60;8.60;;;;;;;16.72;29.76;102075.13;1783722;79;20935;-75
2022/03/15 08:32:37;;;;;;;13.48;9.30;;;;;;;16.70;29.40;102057.16;1768642;80;20900;-74
2022/03/15 08:35:08;;;;;;;14.30;9.95;;;;;;;16.28;30.33;102065.00;1792794;79;21144;-75
2022/03/15 08:37:37;;;;;;;10.23;8.88;;;;;;;15.97;30.98;102059.86;1776888;79;20982;-76
2022/03/15 08:40:08;;;;;;;11.85;9.55;;;;;;;15.95;31.32;102069.20;1771263;79;21417;-75
2022/03/15 08:42:37;;;;;;;10.93;9.23;;;;;;;16.06;31.40;102064.13;1773723;79;20966;-76
2022/03/15 08:45:10;;;;;;;10.50;9.50;;;;;;;16.43;30.94;102068.52;1789666;80;20939;-76
2022/03/15 08:47:38;;;;;;;9.68;8.50;;;;;;;16.90;30.60;102060.73;1792409;80;20991;-74
2022/03/15 08:50:06;;;;;;;11.12;8.90;;;;;;;17.39;30.85;102067.33;1781205;80;21535;-75
2022/03/15 08:52:33;;;;;;;9.00;8.00;;;;;;;17.76;30.63;102064.86;1775088;80;21750;-75
2022/03/15 08:55:02;;;;;;;9.40;7.47;;;;;;;18.00;28.79;102051.28;1785312;80;20914;-75
2022/03/15 08:57:31;;;;;;;10.53;8.45;;;;;;;17.93;28.90;102050.49;1777745;79;20900;-75
2022/03/15 08:59:58;;;;;;;10.13;8.63;;;;;;;17.78;29.22;102054.99;1792953;80;20934;-75
2022/03/15 09:02:25;;;;;;;11.65;8.40;;;;;;;17.69;29.06;102047.66;1767009;79;20947;-73
2022/03/15 09:04:52;;;;;;;10.35;7.58;;;;;;;17.81;29.12;102041.09;1760228;79;21143;-75
2022/03/15 09:07:20;;;;;;;9.20;7.83;;;;;;;17.92;29.58;102046.13;1784340;80;20951;-74
2022/03/15 09:09:49;;;;;;;10.32;7.95;;;;;;;18.04;29.09;102043.97;1785639;79;21037;-74
2022/03/15 09:12:17;;;;;;;8.65;7.67;;;;;;;18.25;28.62;102040.77;1775320;79;21034;-74
2022/03/15 09:14:46;;;;;;;11.83;7.55;;;;;;;18.60;28.61;102031.64;1769688;80;20986;-75
2022/03/15 09:17:13;;;;;;;8.75;7.83;;;;;;;18.86;27.69;102039.11;1782728;79;21194;-75
2022/03/15 09:19:40;;;;;;;7.62;6.78;;;;;;;19.07;27.19;102038.01;1793277;80;20895;-75
2022/03/15 09:22:07;;;;;;;9.60;6.95;;;;;;;19.12;26.89;102031.90;1791382;80;20880;-75
2022/03/15 09:24:36;;;;;;;8.70;7.35;;;;;;;19.01;27.09;102034.02;1789056;80;20971;-76
2022/03/15 09:27:04;;;;;;;7.90;7.10;;;;;;;19.09;27.06;102040.57;1760259;79;20990;-75
2022/03/15 09:29:31;;;;;;;9.13;7.12;;;;;;;18.87;27.01;102041.28;1760414;79;21222;-74
2022/03/15 09:31:59;;;;;;;7.80;7.00;;;;;;;18.46;27.58;102044.59;1775827;80;21034;-73
2022/03/15 09:34:27;;;;;;;8.88;7.47;;;;;;;18.27;28.30;102047.67;1793156;80;20954;-75
2022/03/15 09:36:54;;;;;;;8.58;6.97;;;;;;;18.16;28.21;102044.91;1770680;80;20946;-74
2022/03/15 09:39:20;;;;;;;8.03;7.08;;;;;;;17.99;28.23;102045.61;1770753;80;21488;-74
2022/03/15 09:41:50;;;;;;;9.73;6.92;;;;;;;17.94;28.63;102046.41;1771931;80;21670;-75
2022/03/15 09:44:18;;;;;;;6.90;6.20;;;;;;;17.92;28.88;102048.77;1762870;80;20974;-74
2022/03/15 09:46:51;;;;;;;7.75;6.85;;;;;;;17.78;29.18;102046.55;1763030;80;20895;-74
2022/03/15 09:49:20;;;;;;;7.10;5.92;;;;;;;17.50;29.15;102046.25;1792876;80;21006;-74
2022/03/15 09:51:48;;;;;;;7.50;6.58;;;;;;;17.02;29.62;102045.84;1765641;80;21668;-74
2022/03/15 09:54:15;;;;;;;8.13;6.37;;;;;;;16.66;30.23;102049.86;1781781;80;21499;-75
2022/03/15 09:56:44;;;;;;;6.80;6.12;;;;;;;16.30;31.17;102045.06;1780031;79;20911;-75
2022/03/15 09:59:19;;;;;;;7.85;6.03;;;;;;;16.07;31.91;102049.09;1762180;80;20920;-74
2022/03/15 10:01:55;;;;;;;8.20;6.83;;;;;;;15.95;32.32;102050.69;1776130;79;21021;-74
2022/03/15 10:04:22;;;;;;;6.42;5.70;;;;;;;15.74;32.47;102045.73;1791867;79;21461;-74
2022/03/15 10:06:51;;;;;;;6.62;5.85;;;;;;;15.55;32.76;102047.71;1763738;79;21223;-74
2022/03/15 10:09:22;;;;;;;7.65;6.15;;;;;;;15.52;33.00;102049.22;1774337;80;20848;-74
2022/03/15 10:11:50;;;;;;;6.78;6.08;;;;;;;15.54;32.63;102049.52;1771338;80;20875;-74
2022/03/15 10:14:19;;;;;;;6.33;5.60;;;;;;;15.41;32.96;102042.38;1764900;80;21007;-75
2022/03/15 10:16:50;;;;;;;6.85;5.37;;;;;;;15.31;33.36;102041.56;1775431;79;20990;-75
2022/03/15 10:19:19;;;;;;;6.90;5.90;;;;;;;15.20;33.62;102039.16;1791765;80;21545;-72
2022/03/15 10:21:51;;;;;;;7.53;5.30;;;;;;;14.98;33.93;102040.83;1764855;79;21483;-75
2022/03/15 10:24:27;;;;;;;7.03;5.22;;;;;;;14.69;33.53;102034.89;1769498;80;20865;-73
2022/03/15 10:26:57;;;;;;;6.35;5.53;;;;;;;14.25;33.91;102042.08;1764559;79;21460;-73
2022/03/15 10:29:28;;;;;;;6.22;5.17;;;;;;;13.77;34.76;102048.10;1760308;80;20844;-74
2022/03/15 10:31:55;;;;;;;5.22;4.72;;;;;;;13.83;35.36;102042.52;1740594;80;21224;-75
2022/03/15 10:34:22;;;;;;;6.65;5.70;;;;;;;13.92;35.54;102035.90;1761113;79;20915;-73
2022/03/15 10:36:53;;;;;;;6.05;5.45;;;;;;;13.95;35.94;102041.03;1764967;79;20935;-73
2022/03/15 10:39:21;;;;;;;7.80;5.65;;;;;;;13.75;35.55;102042.89;1789499;80;20943;-74
2022/03/15 10:41:56;;;;;;;7.15;5.97;;;;;;;13.66;35.65;102040.73;1792428;80;20935;-74
2022/03/15 10:44:31;;;;;;;7.20;4.97;;;;;;;13.45;36.16;102047.46;1772657;80;21642;-71
2022/03/15 10:47:15;;;;;;;5.97;5.20;;;;;;;12.86;36.86;102045.40;1770586;80;20923;-74
2022/03/15 10:49:57;;;;;;;9.25;6.08;;;;;;;12.22;38.18;102033.85;1781124;80;21141;-74
2022/03/15 10:52:37;;;;;;;7.65;6.17;;;;;;;11.73;39.26;102035.47;1778751;80;20899;-73
2022/03/15 10:55:28;;;;;;;6.85;5.15;;;;;;;11.41;40.15;102043.39;1765776;80;21011;-73
2022/03/15 10:58:00;;;;;;;7.35;5.75;;;;;;;11.32;40.61;102033.27;1775340;80;20884;-73
2022/03/15 11:00:33;;;;;;;8.03;5.75;;;;;;;11.29;40.56;102038.16;1766595;79;21356;-74
2022/03/15 11:03:00;;;;;;;7.62;5.50;;;;;;;11.40;40.45;102041.23;1791727;80;20998;-75
2022/03/15 11:05:36;;;;;;;10.43;5.45;;;;;;;11.45;40.42;102042.35;1770336;80;21014;-74
2022/03/15 11:08:11;;;;;;;8.78;6.12;;;;;;;11.31;40.37;102038.95;1764888;80;21420;-73
2022/03/15 11:10:44;;;;;;;8.88;5.87;;;;;;;11.14;40.80;102034.39;1784911;80;21651;-73
2022/03/15 11:13:12;;;;;;;8.00;5.60;;;;;;;11.06;41.02;102030.35;1787376;80;21419;-73
2022/03/15 11:15:50;;;;;;;7.08;5.28;;;;;;;10.88;40.93;102036.71;1789755;80;21453;-73
2022/03/15 11:18:19;;;;;;;8.40;6.65;;;;;;;10.76;41.05;102030.17;1770596;80;20990;-73
2022/03/15 11:20:50;;;;;;;10.63;6.87;;;;;;;10.63;41.26;102038.11;1774997;80;21052;-73
2022/03/15 11:23:19;;;;;;;8.63;7.30;;;;;;;10.51;41.41;102038.08;1775281;80;21209;-73
2022/03/15 11:25:56;;;;;;;9.40;6.47;;;;;;;10.33;41.57;102033.52;1781859;80;20907;-73
2022/03/15 11:28:29;;;;;;;10.70;6.83;;;;;;;10.12;42.35;102029.42;1772838;80;20951;-73
2022/03/15 11:30:56;;;;;;;12.20;7.92;;;;;;;10.03;42.78;102042.00;1776152;80;20888;-73